createdAt,value
2023-05-09T00:00:00.157Z,97.59
2023-05-09T00:03:06.376Z,96.00
2023-05-09T00:06:14.006Z,98.13
2023-05-09T00:09:20.185Z,98.21
2023-05-09T00:12:27.275Z,98.78
2023-05-09T00:15:36.299Z,98.25
2023-05-09T00:18:43.004Z,100.10
2023-05-09T00:21:49.482Z,100.92
2023-05-09T00:24:56.708Z,97.18
2023-05-09T00:28:02.808Z,98.56
2023-05-09T00:31:12.338Z,98.53
2023-05-09T00:34:18.416Z,100.47
2023-05-09T00:37:25.443Z,103.66
2023-05-09T00:40:36.603Z,98.53
2023-05-09T00:43:43.470Z,100.33
2023-05-09T00:46:52.441Z,101.20
2023-05-09T00:50:01.278Z,103.72
2023-05-09T00:53:13.146Z,103.46
2023-05-09T00:56:22.070Z,112.46
2023-05-09T00:59:34.557Z,116.40
2023-05-09T01:02:45.433Z,120.37
2023-05-09T01:06:01.858Z,119.42
2023-05-09T01:09:27.601Z,115.59
2023-05-09T01:12:49.555Z,111.64
2023-05-09T01:16:17.594Z,114.99
2023-05-09T01:20:00.182Z,109.37
2023-05-09T01:23:38.278Z,111.06
2023-05-09T01:27:19.020Z,113.17
2023-05-09T01:30:34.316Z,113.61
2023-05-09T01:33:45.478Z,111.33
2023-05-09T01:36:59.094Z,109.76
2023-05-09T01:40:15.500Z,113.54
2023-05-09T01:43:27.095Z,113.48
2023-05-09T01:46:37.968Z,114.78
2023-05-09T01:49:47.781Z,110.74
2023-05-09T01:53:01.379Z,110.44
2023-05-09T01:56:17.325Z,110.07
2023-05-09T01:59:33.274Z,108.26
2023-05-09T02:02:44.693Z,108.93
2023-05-09T02:05:53.796Z,113.07
2023-05-09T02:09:01.954Z,113.51
2023-05-09T02:12:08.732Z,113.47
2023-05-09T02:15:16.735Z,118.42
2023-05-09T02:18:25.351Z,117.99
2023-05-09T02:21:32.258Z,121.06
2023-05-09T02:24:39.145Z,125.46
2023-05-09T02:27:49.623Z,121.23
2023-05-09T02:31:05.024Z,119.18
2023-05-09T02:34:16.470Z,121.51
2023-05-09T02:37:24.032Z,124.71
2023-05-09T02:40:33.516Z,127.96
2023-05-09T02:43:39.459Z,128.22
2023-05-09T02:46:46.648Z,129.41
2023-05-09T02:50:01.377Z,126.75
2023-05-09T02:53:15.963Z,128.85
2023-05-09T02:56:28.662Z,129.95
2023-05-09T02:59:35.539Z,135.49
2023-05-09T03:02:42.937Z,139.32
2023-05-09T03:05:58.148Z,141.42
2023-05-09T03:09:04.160Z,144.64
2023-05-09T03:12:12.122Z,143.59
2023-05-09T03:15:24.046Z,141.99
2023-05-09T03:18:31.331Z,143.89
2023-05-09T03:21:40.030Z,143.62
2023-05-09T03:25:03.986Z,147.00
2023-05-09T03:28:09.992Z,155.11
2023-05-09T03:31:19.520Z,167.84
2023-05-09T03:34:25.439Z,161.65
2023-05-09T03:37:35.037Z,160.70
2023-05-09T03:40:41.745Z,161.16
2023-05-09T03:43:50.774Z,161.28
2023-05-09T03:46:56.632Z,168.98
2023-05-09T03:50:06.064Z,162.35
2023-05-09T03:53:15.826Z,166.67
2023-05-09T03:56:26.173Z,164.73
2023-05-09T03:59:33.120Z,161.08
2023-05-09T04:02:41.104Z,156.70
2023-05-09T04:05:50.779Z,148.41
2023-05-09T04:09:11.982Z,141.23
2023-05-09T04:12:20.630Z,146.61
2023-05-09T04:15:28.308Z,141.90
2023-05-09T04:18:36.868Z,137.53
2023-05-09T04:21:44.972Z,129.09
2023-05-09T04:24:53.548Z,121.56
2023-05-09T04:28:00.933Z,123.30
2023-05-09T04:31:07.731Z,118.54
2023-05-09T04:34:15.930Z,117.94
2023-05-09T04:37:22.319Z,119.08
2023-05-09T04:40:38.770Z,120.40
2023-05-09T04:43:44.939Z,113.29
2023-05-09T04:47:01.559Z,109.09
2023-05-09T04:50:25.489Z,107.40
2023-05-09T04:53:32.306Z,106.74
2023-05-09T04:56:42.473Z,105.95
2023-05-09T04:59:50.037Z,107.31
2023-05-09T05:02:56.224Z,102.03
2023-05-09T05:06:06.625Z,102.19
2023-05-09T05:09:14.190Z,105.83
2023-05-09T05:12:23.724Z,102.48
2023-05-09T05:15:29.865Z,99.69
2023-05-09T05:18:37.461Z,102.75
2023-05-09T05:21:44.819Z,101.87
2023-05-09T05:24:52.351Z,102.55
2023-05-09T05:28:01.620Z,105.45
2023-05-09T05:31:08.848Z,104.16
2023-05-09T05:34:16.670Z,105.88
2023-05-09T05:37:24.455Z,102.55
2023-05-09T05:40:30.437Z,101.09
2023-05-09T05:43:43.237Z,103.53
2023-05-09T05:46:49.440Z,101.77
2023-05-09T05:49:57.167Z,98.78
2023-05-09T05:53:03.696Z,98.03
2023-05-09T05:56:11.173Z,95.02
2023-05-09T05:59:20.003Z,96.75
2023-05-09T06:02:27.155Z,96.05
2023-05-09T06:05:33.961Z,91.29
2023-05-09T06:08:41.357Z,101.31
2023-05-09T06:11:47.943Z,122.04
2023-05-09T06:14:57.322Z,127.41
2023-05-09T06:18:03.712Z,1565.34
2023-05-09T06:21:11.026Z,317.27
2023-05-09T06:24:31.633Z,123.18
2023-05-09T06:27:42.042Z,113.56
2023-05-09T06:30:50.800Z,128.95
2023-05-09T06:33:57.609Z,123.67
2023-05-09T06:37:03.554Z,127.29
2023-05-09T06:40:12.582Z,119.06
2023-05-09T06:43:18.559Z,127.92
2023-05-09T06:46:28.140Z,119.64
2023-05-09T06:49:36.293Z,113.01
2023-05-09T06:52:43.721Z,111.34
2023-05-09T06:55:49.925Z,113.81
2023-05-09T06:58:56.848Z,105.99
2023-05-09T07:02:06.829Z,99.55
2023-05-09T07:05:14.059Z,102.83
2023-05-09T07:08:20.400Z,111.02
2023-05-09T07:11:27.403Z,113.57
2023-05-09T07:14:37.296Z,99.40
2023-05-09T07:17:47.069Z,251.17
2023-05-09T07:20:53.094Z,288.36
2023-05-09T07:23:59.868Z,293.01
2023-05-09T07:27:06.822Z,167.17
2023-05-09T07:30:14.896Z,98.86
2023-05-09T07:33:23.854Z,97.84
2023-05-09T07:36:30.822Z,97.10
2023-05-09T07:39:41.300Z,97.82
2023-05-09T07:42:54.421Z,95.74
2023-05-09T07:46:00.436Z,85.53
2023-05-09T07:49:09.947Z,89.67
2023-05-09T07:52:17.610Z,77.37
2023-05-09T07:55:26.539Z,81.30
2023-05-09T07:58:32.499Z,72.00
2023-05-09T08:01:39.432Z,83.65
2023-05-09T08:04:49.287Z,70.52
2023-05-09T08:07:56.097Z,76.66
2023-05-09T08:11:02.243Z,73.30
2023-05-09T08:14:09.061Z,82.66
2023-05-09T08:17:15.048Z,74.64
2023-05-09T08:20:25.996Z,79.13
2023-05-09T08:23:32.812Z,68.15
2023-05-09T08:26:39.599Z,77.87
2023-05-09T08:29:46.408Z,79.31
2023-05-09T08:32:59.507Z,76.83
2023-05-09T08:36:09.493Z,63.73
2023-05-09T08:39:16.301Z,67.33
2023-05-09T08:42:26.786Z,79.39
2023-05-09T08:45:37.170Z,78.45
2023-05-09T08:48:46.471Z,88.78
2023-05-09T08:51:56.353Z,87.95
2023-05-09T08:55:04.059Z,81.40
2023-05-09T08:58:12.774Z,92.68
2023-05-09T09:01:22.092Z,85.27
2023-05-09T09:04:29.065Z,84.24
2023-05-09T09:07:39.775Z,84.99
2023-05-09T09:10:50.254Z,88.09
2023-05-09T09:13:59.113Z,87.52
2023-05-09T09:17:09.439Z,86.03
2023-05-09T09:20:27.682Z,105.34
2023-05-09T09:23:40.982Z,100.14
2023-05-09T09:26:52.000Z,91.27
2023-05-09T09:30:14.629Z,83.61
2023-05-09T09:33:24.345Z,73.55
2023-05-09T09:36:32.737Z,71.85
2023-05-09T09:39:41.285Z,72.68
2023-05-09T09:42:50.087Z,77.05
2023-05-09T09:45:58.286Z,68.64
2023-05-09T09:49:05.208Z,72.77
2023-05-09T09:52:11.115Z,77.47
2023-05-09T09:55:27.891Z,70.48
2023-05-09T09:58:36.066Z,64.47
2023-05-09T10:02:06.106Z,67.41
2023-05-09T10:05:15.838Z,64.31
2023-05-09T10:08:22.844Z,71.02
2023-05-09T10:11:31.721Z,60.51
2023-05-09T10:14:41.553Z,72.47
2023-05-09T10:17:47.888Z,62.39
2023-05-09T10:20:56.707Z,60.47
2023-05-09T10:24:06.400Z,58.85
2023-05-09T10:27:18.825Z,69.37
2023-05-09T10:30:34.219Z,60.80
2023-05-09T10:33:49.873Z,61.66
2023-05-09T10:36:57.789Z,53.34
2023-05-09T10:40:09.595Z,63.48
2023-05-09T10:43:22.088Z,57.46
2023-05-09T10:46:31.613Z,60.69
2023-05-09T10:49:38.331Z,54.49
2023-05-09T10:53:14.482Z,61.00
2023-05-09T10:56:29.496Z,54.42
2023-05-09T10:59:44.022Z,56.09
2023-05-09T11:03:10.906Z,57.86
2023-05-09T11:06:51.388Z,56.62
2023-05-09T11:10:12.915Z,58.82
2023-05-09T11:13:23.865Z,62.25
2023-05-09T11:16:32.433Z,58.71
2023-05-09T11:19:57.031Z,61.84
2023-05-09T11:23:09.012Z,51.52
2023-05-09T11:26:18.296Z,58.21
2023-05-09T11:29:29.776Z,49.51
2023-05-09T11:32:49.391Z,57.47
2023-05-09T11:36:25.854Z,54.83
2023-05-09T11:39:33.037Z,54.96
2023-05-09T11:42:39.881Z,58.06
2023-05-09T11:45:50.046Z,54.89
2023-05-09T11:48:58.762Z,60.72
2023-05-09T11:52:05.469Z,59.50
2023-05-09T11:55:14.717Z,57.19
2023-05-09T11:58:21.999Z,54.43
2023-05-09T12:01:29.584Z,57.12
2023-05-09T12:04:39.896Z,53.76
2023-05-09T12:07:46.620Z,47.89
2023-05-09T12:10:53.846Z,52.41
2023-05-09T12:13:59.757Z,51.19
2023-05-09T12:17:06.680Z,53.49
2023-05-09T12:20:16.424Z,53.49
2023-05-09T12:23:23.692Z,49.90
2023-05-09T12:26:30.233Z,43.59
2023-05-09T12:29:38.761Z,46.04
2023-05-09T12:32:47.145Z,45.07
2023-05-09T12:36:11.598Z,45.55
2023-05-09T12:39:22.723Z,42.39
2023-05-09T12:42:31.738Z,44.29
2023-05-09T12:45:38.695Z,39.55
2023-05-09T12:48:50.626Z,47.53
2023-05-09T12:52:05.764Z,47.99
2023-05-09T12:55:17.195Z,44.05
2023-05-09T12:58:23.259Z,49.92
2023-05-09T13:01:37.959Z,47.16
2023-05-09T13:04:48.853Z,39.25
2023-05-09T13:08:00.999Z,46.33
2023-05-09T13:11:18.680Z,44.13
2023-05-09T13:14:30.372Z,45.34
2023-05-09T13:17:36.439Z,48.71
2023-05-09T13:20:43.864Z,51.24
2023-05-09T13:23:53.037Z,51.05
2023-05-09T13:26:59.833Z,51.61
2023-05-09T13:30:07.936Z,50.14
2023-05-09T13:33:25.409Z,51.50
2023-05-09T13:36:32.911Z,43.48
2023-05-09T13:39:42.357Z,53.42
2023-05-09T13:42:49.227Z,49.21
2023-05-09T13:45:56.102Z,50.70
2023-05-09T13:49:05.010Z,50.29
2023-05-09T13:52:12.406Z,50.99
2023-05-09T13:55:23.656Z,43.43
2023-05-09T13:58:30.472Z,49.77
2023-05-09T14:01:36.614Z,44.80
2023-05-09T14:04:44.317Z,46.80
2023-05-09T14:07:52.781Z,47.86
2023-05-09T14:11:04.262Z,49.07
2023-05-09T14:14:10.266Z,51.75
2023-05-09T14:17:17.268Z,51.47
2023-05-09T14:20:24.171Z,51.61
2023-05-09T14:23:32.036Z,50.84
2023-05-09T14:26:42.013Z,54.92
2023-05-09T14:29:49.753Z,56.09
2023-05-09T14:32:55.974Z,51.35
2023-05-09T14:36:05.104Z,53.12
2023-05-09T14:39:11.225Z,50.06
2023-05-09T14:42:21.082Z,51.18
2023-05-09T14:45:27.137Z,46.82
2023-05-09T14:48:34.137Z,49.24
2023-05-09T14:51:40.203Z,49.98
2023-05-09T14:54:46.968Z,52.58
2023-05-09T14:57:55.619Z,44.64
2023-05-09T15:01:03.024Z,50.29
2023-05-09T15:04:09.774Z,49.84
2023-05-09T15:07:16.508Z,52.12
2023-05-09T15:10:22.574Z,43.64
2023-05-09T15:13:32.142Z,48.16
2023-05-09T15:16:40.032Z,47.96
2023-05-09T15:19:47.263Z,50.40
2023-05-09T15:22:56.494Z,44.95
2023-05-09T15:26:03.249Z,49.89
2023-05-09T15:29:13.447Z,49.50
2023-05-09T15:32:20.724Z,53.83
2023-05-09T15:35:27.005Z,48.27
2023-05-09T15:38:33.688Z,53.56
2023-05-09T15:41:42.983Z,53.27
2023-05-09T15:44:53.172Z,50.94
2023-05-09T15:47:59.167Z,50.86
2023-05-09T15:51:06.048Z,51.66
2023-05-09T15:54:11.997Z,54.68
2023-05-09T15:57:20.123Z,53.13
2023-05-09T16:00:38.583Z,44.96
2023-05-09T16:03:45.515Z,52.38
2023-05-09T16:06:52.513Z,52.76
2023-05-09T16:10:00.253Z,51.70
2023-05-09T16:13:06.319Z,52.73
2023-05-09T16:16:16.061Z,54.71
2023-05-09T16:19:30.883Z,52.92
2023-05-09T16:22:37.795Z,54.82
2023-05-09T16:25:45.208Z,53.05
2023-05-09T16:28:52.359Z,56.80
2023-05-09T16:32:01.008Z,50.25
2023-05-09T16:35:22.753Z,56.08
2023-05-09T16:38:29.194Z,45.93
2023-05-09T16:41:36.000Z,56.52
2023-05-09T16:44:42.170Z,50.20
2023-05-09T16:47:51.726Z,59.56
2023-05-09T16:50:57.756Z,54.76
2023-05-09T16:54:09.990Z,49.77
2023-05-09T16:57:19.798Z,52.90
2023-05-09T17:00:39.961Z,52.64
2023-05-09T17:03:48.927Z,45.16
2023-05-09T17:06:55.996Z,55.82
2023-05-09T17:10:02.258Z,46.87
2023-05-09T17:13:09.701Z,52.69
2023-05-09T17:16:16.406Z,57.17
2023-05-09T17:19:28.756Z,57.18
2023-05-09T17:22:41.785Z,47.74
2023-05-09T17:25:52.242Z,49.49
2023-05-09T17:28:58.257Z,55.02
2023-05-09T17:32:07.913Z,57.05
2023-05-09T17:35:19.639Z,54.65
2023-05-09T17:38:26.540Z,55.24
2023-05-09T17:41:38.932Z,57.63
2023-05-09T17:44:47.864Z,54.47
2023-05-09T17:47:53.903Z,51.29
2023-05-09T17:51:09.934Z,61.50
2023-05-09T17:54:22.187Z,57.64
2023-05-09T17:57:29.161Z,59.10
2023-05-09T18:00:41.949Z,65.80
2023-05-09T18:03:51.196Z,59.69
2023-05-09T18:07:00.118Z,57.30
2023-05-09T18:10:15.517Z,63.48
2023-05-09T18:13:21.812Z,62.01
2023-05-09T18:16:28.711Z,63.36
2023-05-09T18:19:35.760Z,70.34
2023-05-09T18:22:45.067Z,66.67
2023-05-09T18:25:51.486Z,69.97
2023-05-09T18:28:58.422Z,65.18
2023-05-09T18:32:04.993Z,60.83
2023-05-09T18:35:12.927Z,73.76
2023-05-09T18:38:21.474Z,72.95
2023-05-09T18:41:34.259Z,65.59
2023-05-09T18:44:40.294Z,62.70
2023-05-09T18:47:47.178Z,69.18
2023-05-09T18:50:54.306Z,67.94
2023-05-09T18:54:03.839Z,71.46
2023-05-09T18:57:10.252Z,67.85
2023-05-09T19:00:19.101Z,77.25
2023-05-09T19:03:25.833Z,72.90
2023-05-09T19:06:34.946Z,67.90
2023-05-09T19:09:45.035Z,69.63
2023-05-09T19:12:52.312Z,78.83
2023-05-09T19:15:59.606Z,79.76
2023-05-09T19:19:06.440Z,71.85
2023-05-09T19:22:12.455Z,75.44
2023-05-09T19:25:22.474Z,78.75
2023-05-09T19:28:28.643Z,71.91
2023-05-09T19:31:35.428Z,84.36
2023-05-09T19:34:41.471Z,76.69
2023-05-09T19:37:50.447Z,83.66
2023-05-09T19:40:59.503Z,85.36
2023-05-09T19:44:07.552Z,78.78
2023-05-09T19:47:14.029Z,85.49
2023-05-09T19:50:21.463Z,85.45
2023-05-09T19:53:36.130Z,69.46
2023-05-09T19:56:45.577Z,79.08
2023-05-09T19:59:52.343Z,75.06
2023-05-09T20:03:02.852Z,76.24
2023-05-09T20:06:09.366Z,73.49
2023-05-09T20:09:21.116Z,81.43
2023-05-09T20:12:30.364Z,83.33
2023-05-09T20:15:37.610Z,87.81
2023-05-09T20:19:01.375Z,73.12
2023-05-09T20:22:09.242Z,87.04
2023-05-09T20:25:15.660Z,76.16
2023-05-09T20:28:25.224Z,79.81
2023-05-09T20:31:31.567Z,78.09
2023-05-09T20:34:38.454Z,163.98
2023-05-09T20:37:44.674Z,176.77
2023-05-09T20:40:51.450Z,126.78
2023-05-09T20:44:04.534Z,93.35
2023-05-09T20:47:11.812Z,92.38
2023-05-09T20:50:18.141Z,92.76
2023-05-09T20:53:26.805Z,92.66
2023-05-09T20:56:34.001Z,91.43
2023-05-09T20:59:44.393Z,92.78
2023-05-09T21:02:50.373Z,88.73
2023-05-09T21:05:57.490Z,97.32
2023-05-09T21:09:03.728Z,89.71
2023-05-09T21:12:11.393Z,89.03
2023-05-09T21:15:20.453Z,94.23
2023-05-09T21:18:27.783Z,94.98
2023-05-09T21:21:34.728Z,91.09
2023-05-09T21:24:41.400Z,95.83
2023-05-09T21:27:47.869Z,101.66
2023-05-09T21:31:00.224Z,106.78
2023-05-09T21:34:10.321Z,113.50
2023-05-09T21:37:17.208Z,119.77
2023-05-09T21:40:25.963Z,109.29
2023-05-09T21:43:32.784Z,108.33
2023-05-09T21:46:46.523Z,109.06
2023-05-09T21:49:53.469Z,107.37
2023-05-09T21:53:00.747Z,111.34
2023-05-09T21:56:08.624Z,111.23
2023-05-09T21:59:14.461Z,103.03
2023-05-09T22:02:24.026Z,108.66
2023-05-09T22:05:30.154Z,107.76
2023-05-09T22:08:36.900Z,105.65
2023-05-09T22:11:42.907Z,98.74
2023-05-09T22:14:56.329Z,102.09
2023-05-09T22:18:05.718Z,99.55
2023-05-09T22:21:12.989Z,104.58
2023-05-09T22:24:18.812Z,98.89
2023-05-09T22:27:25.654Z,101.36
2023-05-09T22:30:38.068Z,102.47
2023-05-09T22:33:47.469Z,102.39
2023-05-09T22:36:56.366Z,102.70
2023-05-09T22:40:03.732Z,104.67
2023-05-09T22:43:10.904Z,107.08
2023-05-09T22:46:17.636Z,106.68
2023-05-09T22:49:26.813Z,104.01
2023-05-09T22:52:33.568Z,110.00
2023-05-09T22:55:39.777Z,102.18
2023-05-09T22:58:46.911Z,106.20
2023-05-09T23:01:53.828Z,109.33
2023-05-09T23:05:03.553Z,115.11
2023-05-09T23:08:09.603Z,110.30
2023-05-09T23:11:16.301Z,111.22
2023-05-09T23:14:22.356Z,117.03
2023-05-09T23:17:32.081Z,105.88
2023-05-09T23:20:40.669Z,100.92
2023-05-09T23:23:47.407Z,102.20
2023-05-09T23:26:53.372Z,98.26
2023-05-09T23:30:00.223Z,98.86
2023-05-09T23:33:06.339Z,102.81
2023-05-09T23:36:15.943Z,105.33
2023-05-09T23:39:21.980Z,107.02
2023-05-09T23:42:29.161Z,105.64
2023-05-09T23:45:40.863Z,112.82
2023-05-09T23:48:47.677Z,1852.60
2023-05-09T23:51:57.292Z,5632.97
2023-05-09T23:55:04.099Z,9593.64
2023-05-09T23:58:10.115Z,2690.35
